createdAt,value
2022-08-23T00:01:31.263Z,0.20
2022-08-23T00:04:06.375Z,0.20
2022-08-23T00:06:34.355Z,0.10
2022-08-23T00:09:03.287Z,0.10
2022-08-23T00:11:43.878Z,0.10
2022-08-23T00:14:22.120Z,0.00
2022-08-23T00:16:50.818Z,0.10
2022-08-23T00:19:21.195Z,0.10
2022-08-23T00:21:50.713Z,0.10
2022-08-23T00:24:19.714Z,0.10
2022-08-23T00:26:54.718Z,0.10
2022-08-23T00:29:33.591Z,0.10
2022-08-23T00:32:02.176Z,0.10
2022-08-23T00:34:30.891Z,0.10
2022-08-23T00:36:58.910Z,0.05
2022-08-23T00:39:27.200Z,0.10
2022-08-23T00:43:05.989Z,0.13
2022-08-23T00:46:05.906Z,0.10
2022-08-23T00:48:34.811Z,0.10
2022-08-23T00:51:18.806Z,0.10
2022-08-23T00:53:54.219Z,0.10
2022-08-23T00:56:25.699Z,0.10
2022-08-23T00:58:56.057Z,0.10
2022-08-23T01:01:25.699Z,0.17
2022-08-23T01:04:03.992Z,0.10
2022-08-23T01:06:38.888Z,0.10
2022-08-23T01:09:14.792Z,0.10
2022-08-23T01:11:42.881Z,0.10
2022-08-23T01:14:26.568Z,0.20
2022-08-23T01:17:22.592Z,0.20
2022-08-23T01:19:58.506Z,0.10
2022-08-23T01:23:06.771Z,0.20
2022-08-23T01:25:35.923Z,0.10
2022-08-23T01:28:04.282Z,0.20
2022-08-23T01:30:33.625Z,0.20
2022-08-23T01:33:04.578Z,0.40
2022-08-23T01:35:41.876Z,0.30
2022-08-23T01:38:12.531Z,0.50
2022-08-23T01:40:41.804Z,0.40
2022-08-23T01:43:10.741Z,0.20
2022-08-23T01:45:39.845Z,0.40
2022-08-23T01:48:10.617Z,0.40
2022-08-23T01:50:38.904Z,0.38
2022-08-23T01:53:07.281Z,0.50
2022-08-23T01:55:36.998Z,0.55
2022-08-23T01:58:07.282Z,0.57
2022-08-23T02:00:42.689Z,0.73
2022-08-23T02:03:14.667Z,0.47
2022-08-23T02:05:43.249Z,0.50
2022-08-23T02:08:30.948Z,0.50
2022-08-23T02:11:00.556Z,0.40
2022-08-23T02:13:28.438Z,0.60
2022-08-23T02:15:58.614Z,0.40
2022-08-23T02:18:26.889Z,0.68
2022-08-23T02:20:54.781Z,0.70
2022-08-23T02:23:23.964Z,0.70
2022-08-23T02:25:52.228Z,0.70
2022-08-23T02:28:22.227Z,1.20
2022-08-23T02:30:51.306Z,0.80
2022-08-23T02:33:19.838Z,0.80
2022-08-23T02:35:48.426Z,1.40
2022-08-23T02:38:18.466Z,1.13
2022-08-23T02:40:46.490Z,1.30
2022-08-23T02:43:21.173Z,1.40
2022-08-23T02:45:51.886Z,2.33
2022-08-23T02:48:20.038Z,2.88
2022-08-23T02:51:00.924Z,2.35
2022-08-23T02:53:29.522Z,1.65
2022-08-23T02:55:58.177Z,1.92
2022-08-23T02:58:26.883Z,1.85
2022-08-23T03:00:55.063Z,2.25
2022-08-23T03:03:24.460Z,1.40
2022-08-23T03:05:52.393Z,1.75
2022-08-23T03:08:22.467Z,1.90
2022-08-23T03:10:52.940Z,1.58
2022-08-23T03:13:21.034Z,0.95
2022-08-23T03:15:50.659Z,0.90
2022-08-23T03:18:18.314Z,1.00
2022-08-23T03:20:48.793Z,1.05
2022-08-23T03:23:16.628Z,1.58
2022-08-23T03:25:44.412Z,1.85
2022-08-23T03:28:22.573Z,1.70
2022-08-23T03:30:50.625Z,1.58
2022-08-23T03:33:19.304Z,2.15
2022-08-23T03:35:48.072Z,2.72
2022-08-23T03:38:16.654Z,1.58
2022-08-23T03:40:44.750Z,1.92
2022-08-23T03:43:12.413Z,1.35
2022-08-23T03:45:40.064Z,1.55
2022-08-23T03:48:09.259Z,1.48
2022-08-23T03:50:37.841Z,2.05
2022-08-23T03:53:06.318Z,1.90
2022-08-23T03:55:33.985Z,1.92
2022-08-23T03:58:10.373Z,2.42
2022-08-23T04:00:38.499Z,2.13
2022-08-23T04:03:06.757Z,2.83
2022-08-23T04:05:45.062Z,1.90
2022-08-23T04:08:18.118Z,2.03
2022-08-23T04:10:59.706Z,2.33
2022-08-23T04:13:28.920Z,2.97
2022-08-23T04:15:58.345Z,2.05
2022-08-23T04:18:26.129Z,2.38
2022-08-23T04:20:54.036Z,2.85
2022-08-23T04:23:23.500Z,3.55
2022-08-23T04:25:55.302Z,2.92
2022-08-23T04:28:25.230Z,4.07
2022-08-23T04:30:53.536Z,3.42
2022-08-23T04:33:21.379Z,3.25
2022-08-23T04:35:50.088Z,3.05
2022-08-23T04:38:31.231Z,2.92
2022-08-23T04:41:24.004Z,3.80
2022-08-23T04:44:00.571Z,3.63
2022-08-23T04:46:30.149Z,3.13
2022-08-23T04:49:01.170Z,3.25
2022-08-23T04:51:29.540Z,3.22
2022-08-23T04:53:57.423Z,2.97
2022-08-23T04:56:50.996Z,2.33
2022-08-23T04:59:21.986Z,2.63
2022-08-23T05:01:51.019Z,3.20
2022-08-23T05:04:18.760Z,3.65
2022-08-23T05:06:47.241Z,2.95
2022-08-23T05:09:20.325Z,3.38
2022-08-23T05:11:49.548Z,2.53
2022-08-23T05:14:17.744Z,2.95
2022-08-23T05:16:45.516Z,2.40
2022-08-23T05:19:13.323Z,1.90
2022-08-23T05:21:44.848Z,1.95
2022-08-23T05:24:13.512Z,3.08
2022-08-23T05:26:43.723Z,2.60
2022-08-23T05:29:12.022Z,2.03
2022-08-23T05:31:44.989Z,2.00
2022-08-23T05:34:16.395Z,1.50
2022-08-23T05:36:55.981Z,1.55
2022-08-23T05:39:37.133Z,1.80
2022-08-23T05:42:12.040Z,1.40
2022-08-23T05:44:40.078Z,1.92
2022-08-23T05:47:15.747Z,1.92
2022-08-23T05:50:04.401Z,1.63
2022-08-23T05:52:35.445Z,1.45
2022-08-23T05:55:03.678Z,1.20
2022-08-23T05:57:43.639Z,1.42
2022-08-23T06:00:14.868Z,2.10
2022-08-23T06:02:51.264Z,1.67
2022-08-23T06:05:20.704Z,2.45
2022-08-23T06:07:50.010Z,1.20
2022-08-23T06:10:21.551Z,1.63
2022-08-23T06:13:05.057Z,1.35
2022-08-23T06:15:33.018Z,2.70
2022-08-23T06:18:00.835Z,2.22
2022-08-23T06:20:28.935Z,1.40
2022-08-23T06:23:02.645Z,1.42
2022-08-23T06:25:30.373Z,1.92
2022-08-23T06:28:09.556Z,1.58
2022-08-23T06:30:40.030Z,2.03
2022-08-23T06:33:27.421Z,1.80
2022-08-23T06:36:15.291Z,1.77
2022-08-23T06:39:16.994Z,2.00
2022-08-23T06:42:36.457Z,1.90
2022-08-23T06:45:03.404Z,2.10
2022-08-23T06:47:41.726Z,2.67
2022-08-23T06:50:10.443Z,1.90
2022-08-23T06:53:07.234Z,1.95
2022-08-23T06:55:50.578Z,2.13
2022-08-23T06:58:26.469Z,2.42
2022-08-23T07:01:42.102Z,1.20
2022-08-23T07:04:18.853Z,1.27
2022-08-23T07:07:11.995Z,2.33
2022-08-23T07:09:40.932Z,2.20
2022-08-23T07:12:09.284Z,2.50
2022-08-23T07:14:42.671Z,2.42
2022-08-23T07:17:11.391Z,2.97
2022-08-23T07:19:39.153Z,1.92
2022-08-23T07:22:06.979Z,2.70
2022-08-23T07:24:35.183Z,3.53
2022-08-23T07:27:10.077Z,3.17
2022-08-23T07:30:13.081Z,3.80
2022-08-23T07:32:41.239Z,4.47
2022-08-23T07:35:40.072Z,4.95
2022-08-23T07:38:08.452Z,3.95
2022-08-23T07:40:39.057Z,3.47
2022-08-23T07:43:10.480Z,4.05
2022-08-23T07:45:41.070Z,3.72
2022-08-23T07:48:14.387Z,3.60
2022-08-23T07:51:13.174Z,2.50
2022-08-23T07:53:45.490Z,3.58
2022-08-23T07:56:17.310Z,2.83
2022-08-23T07:59:09.320Z,2.47
2022-08-23T08:01:43.765Z,3.43
2022-08-23T08:04:13.190Z,1.98
2022-08-23T08:07:04.783Z,2.33
2022-08-23T08:09:40.658Z,1.77
2022-08-23T08:12:09.102Z,1.60
2022-08-23T08:14:38.353Z,1.27
2022-08-23T08:17:07.075Z,2.13
2022-08-23T08:20:07.206Z,1.23
2022-08-23T08:22:58.280Z,1.58
2022-08-23T08:25:49.385Z,1.00
2022-08-23T08:28:19.913Z,1.10
2022-08-23T08:30:47.480Z,1.17
2022-08-23T08:33:15.449Z,1.33
2022-08-23T08:35:47.154Z,1.10
2022-08-23T08:38:28.823Z,1.10
2022-08-23T08:41:16.641Z,0.93
2022-08-23T08:43:53.717Z,1.08
2022-08-23T08:46:28.678Z,1.20
2022-08-23T08:49:01.941Z,1.15
2022-08-23T08:51:44.551Z,1.00
2022-08-23T08:54:15.325Z,0.90
2022-08-23T08:56:51.623Z,0.70
2022-08-23T08:59:30.319Z,0.80
2022-08-23T09:04:34.887Z,1.02
2022-08-23T09:07:31.384Z,1.45
2022-08-23T09:10:09.201Z,1.45
2022-08-23T09:12:59.552Z,0.90
2022-08-23T09:16:08.712Z,1.10
2022-08-23T09:18:37.830Z,1.80
2022-08-23T09:21:08.444Z,1.98
2022-08-23T09:23:42.468Z,1.88
2022-08-23T09:26:31.739Z,1.75
2022-08-23T09:29:14.677Z,2.00
2022-08-23T09:31:45.184Z,1.70
2022-08-23T09:34:21.028Z,2.00
2022-08-23T09:37:25.466Z,1.63
2022-08-23T09:40:26.806Z,1.90
2022-08-23T09:43:10.396Z,1.40
2022-08-23T09:45:54.037Z,1.10
2022-08-23T09:48:45.364Z,0.80
2022-08-23T09:51:22.842Z,0.90
2022-08-23T09:54:03.278Z,1.08
2022-08-23T09:56:34.217Z,1.08
2022-08-23T09:59:02.509Z,0.90
2022-08-23T10:01:50.002Z,1.08
2022-08-23T10:04:24.818Z,1.00
2022-08-23T10:06:53.152Z,0.70
2022-08-23T10:09:33.675Z,0.80
2022-08-23T10:12:07.128Z,0.50
2022-08-23T10:14:35.750Z,0.68
2022-08-23T10:17:27.186Z,0.50
2022-08-23T10:20:17.061Z,0.40
2022-08-23T10:22:51.684Z,0.40
2022-08-23T10:25:40.688Z,0.40
2022-08-23T10:29:04.080Z,0.30
2022-08-23T10:31:58.886Z,0.30
2022-08-23T10:34:51.743Z,0.40
2022-08-23T10:37:42.051Z,0.30
2022-08-23T10:40:26.205Z,0.30
2022-08-23T10:43:02.243Z,0.40
2022-08-23T10:45:37.089Z,0.50
2022-08-23T10:48:29.647Z,0.32
2022-08-23T10:51:19.909Z,0.20
2022-08-23T10:53:57.113Z,0.30
2022-08-23T10:56:25.903Z,0.30
2022-08-23T10:59:01.159Z,0.50
2022-08-23T11:01:42.461Z,0.20
2022-08-23T11:04:38.065Z,0.30
2022-08-23T11:07:30.693Z,0.40
2022-08-23T11:10:18.493Z,0.43
2022-08-23T11:13:02.485Z,0.40
2022-08-23T11:15:55.498Z,0.35
2022-08-23T11:18:45.521Z,0.20
2022-08-23T11:21:18.575Z,0.20
2022-08-23T11:23:59.041Z,0.20
2022-08-23T11:26:29.770Z,0.50
2022-08-23T11:29:06.666Z,0.30
2022-08-23T11:31:49.003Z,0.20
2022-08-23T11:34:29.707Z,0.20
2022-08-23T11:37:21.174Z,0.30
2022-08-23T11:40:00.097Z,0.30
2022-08-23T11:42:43.655Z,0.20
2022-08-23T11:45:28.202Z,0.52
2022-08-23T11:48:19.621Z,0.20
2022-08-23T11:51:13.866Z,0.40
2022-08-23T11:53:54.137Z,0.35
2022-08-23T11:56:46.040Z,0.30
2022-08-23T11:59:44.690Z,0.35
2022-08-23T12:02:52.080Z,0.30
2022-08-23T12:05:32.770Z,0.30
2022-08-23T12:08:06.512Z,0.43
2022-08-23T12:10:43.675Z,0.35
2022-08-23T12:13:23.251Z,0.30
2022-08-23T12:16:19.599Z,0.30
2022-08-23T12:18:50.453Z,0.20
2022-08-23T12:21:35.151Z,0.20
2022-08-23T12:24:28.619Z,0.30
2022-08-23T12:27:14.814Z,0.20
2022-08-23T12:29:45.715Z,0.10
2022-08-23T12:32:22.699Z,0.30
2022-08-23T12:35:00.359Z,0.10
2022-08-23T12:37:37.409Z,0.13
2022-08-23T12:40:13.640Z,0.20
2022-08-23T12:42:42.241Z,0.20
2022-08-23T12:45:20.560Z,0.20
2022-08-23T12:48:00.308Z,0.20
2022-08-23T12:50:33.899Z,0.20
2022-08-23T12:53:11.749Z,0.20
2022-08-23T12:55:47.608Z,0.30
2022-08-23T12:58:18.097Z,0.20
2022-08-23T13:00:56.490Z,0.30
2022-08-23T13:03:32.135Z,0.20
2022-08-23T13:06:03.684Z,0.30
2022-08-23T13:08:48.836Z,0.28
2022-08-23T13:11:21.009Z,0.20
2022-08-23T13:13:49.336Z,0.15
2022-08-23T13:16:27.894Z,0.10
2022-08-23T13:19:10.443Z,0.20
2022-08-23T13:21:39.845Z,0.10
2022-08-23T13:24:38.133Z,0.20
2022-08-23T13:27:23.717Z,0.20
2022-08-23T13:29:57.618Z,0.10
2022-08-23T13:32:47.174Z,0.10
2022-08-23T13:35:38.909Z,0.10
2022-08-23T13:38:21.265Z,0.00
2022-08-23T13:41:00.945Z,0.10
2022-08-23T13:43:40.824Z,0.10
2022-08-23T13:46:40.187Z,0.10
2022-08-23T13:49:16.270Z,0.00
2022-08-23T13:52:41.722Z,0.00
2022-08-23T13:54:58.986Z,0.10
2022-08-23T13:57:30.111Z,0.00
2022-08-23T14:00:02.514Z,0.00
2022-08-23T14:02:37.960Z,0.10
2022-08-23T14:05:07.382Z,0.10
2022-08-23T14:07:35.504Z,0.10
2022-08-23T14:10:03.405Z,0.10
2022-08-23T14:12:33.647Z,0.00
2022-08-23T14:15:03.947Z,0.00
2022-08-23T14:17:38.948Z,0.00
2022-08-23T14:22:56.079Z,0.00
2022-08-23T14:25:23.746Z,0.00
2022-08-23T14:27:51.403Z,0.00
2022-08-23T14:30:31.730Z,0.00
2022-08-23T14:33:00.583Z,0.10
2022-08-23T14:35:29.014Z,0.10
2022-08-23T14:38:05.044Z,0.00
2022-08-23T14:40:35.363Z,0.10
2022-08-23T14:43:05.909Z,0.10
2022-08-23T14:45:33.536Z,0.10
2022-08-23T14:48:01.153Z,0.00
2022-08-23T14:50:28.886Z,0.05
2022-08-23T14:52:56.581Z,0.10
2022-08-23T14:55:25.185Z,0.10
2022-08-23T14:57:52.887Z,0.00
2022-08-23T15:00:20.530Z,0.00
2022-08-23T15:02:48.977Z,0.10
2022-08-23T15:05:17.335Z,0.03
2022-08-23T15:07:45.575Z,0.10
2022-08-23T15:13:20.703Z,0.08
2022-08-23T15:15:53.752Z,0.10
2022-08-23T15:18:22.038Z,0.00
2022-08-23T15:20:52.382Z,0.10
2022-08-23T15:23:21.039Z,0.10
2022-08-23T15:25:49.939Z,0.10
2022-08-23T15:28:20.424Z,0.10
2022-08-23T15:30:49.644Z,0.10
2022-08-23T15:33:19.736Z,0.10
2022-08-23T15:35:52.323Z,0.10
2022-08-23T15:38:23.009Z,0.13
2022-08-23T15:40:53.252Z,0.10
2022-08-23T15:43:22.153Z,0.10
2022-08-23T15:45:53.708Z,0.13
2022-08-23T15:48:27.840Z,0.10
2022-08-23T15:50:58.288Z,0.10
2022-08-23T15:53:26.756Z,0.10
2022-08-23T15:55:54.787Z,0.10
2022-08-23T15:58:26.132Z,0.10
2022-08-23T16:00:54.987Z,0.10
2022-08-23T16:03:23.319Z,0.20
2022-08-23T16:05:54.122Z,0.10
2022-08-23T16:08:31.524Z,0.10
2022-08-23T16:10:59.976Z,0.10
2022-08-23T16:13:28.567Z,0.05
2022-08-23T16:15:57.270Z,0.10
2022-08-23T16:18:25.509Z,0.10
2022-08-23T16:20:54.092Z,0.20
2022-08-23T16:23:23.268Z,0.20
2022-08-23T16:25:51.275Z,0.10
2022-08-23T16:28:19.260Z,0.20
2022-08-23T16:30:47.339Z,0.20
2022-08-23T16:33:15.452Z,0.10
2022-08-23T16:35:43.603Z,0.20
2022-08-23T16:38:11.729Z,0.50
2022-08-23T16:40:39.871Z,0.20
2022-08-23T16:43:07.975Z,0.22
2022-08-23T16:45:35.980Z,0.20
2022-08-23T16:48:04.364Z,0.20
2022-08-23T16:50:33.233Z,0.20
2022-08-23T16:53:06.487Z,0.30
2022-08-23T16:55:35.856Z,0.17
2022-08-23T16:58:05.105Z,0.20
2022-08-23T17:00:33.328Z,0.20
2022-08-23T17:03:01.683Z,0.20
2022-08-23T17:05:29.973Z,0.20
2022-08-23T17:07:58.966Z,0.30
2022-08-23T17:10:28.132Z,0.25
2022-08-23T17:12:57.889Z,0.40
2022-08-23T17:15:29.357Z,0.30
2022-08-23T17:17:58.342Z,0.30
2022-08-23T17:20:29.382Z,0.43
2022-08-23T17:22:58.346Z,0.20
2022-08-23T17:25:27.331Z,0.20
2022-08-23T17:27:57.087Z,0.40
2022-08-23T17:30:26.475Z,0.32
2022-08-23T17:32:54.839Z,0.20
2022-08-23T17:35:27.430Z,0.40
2022-08-23T17:37:55.608Z,0.30
2022-08-23T17:40:30.195Z,0.30
2022-08-23T17:42:59.696Z,0.30
2022-08-23T17:45:29.590Z,0.30
2022-08-23T17:47:57.583Z,0.50
2022-08-23T17:50:25.859Z,0.30
2022-08-23T17:52:53.809Z,0.40
2022-08-23T17:55:22.214Z,0.30
2022-08-23T17:57:51.702Z,0.40
2022-08-23T18:00:22.977Z,0.40
2022-08-23T18:02:50.828Z,0.50
2022-08-23T18:05:19.705Z,0.40
2022-08-23T18:07:47.795Z,0.45
2022-08-23T18:10:15.938Z,0.35
2022-08-23T18:12:43.878Z,0.40
2022-08-23T18:15:13.554Z,0.40
2022-08-23T18:17:41.815Z,0.43
2022-08-23T18:20:11.967Z,0.50
2022-08-23T18:22:40.191Z,0.40
2022-08-23T18:25:10.523Z,0.47
2022-08-23T18:27:56.368Z,0.40
2022-08-23T18:30:24.302Z,0.40
2022-08-23T18:32:52.132Z,0.60
2022-08-23T18:35:20.055Z,0.32
2022-08-23T18:37:47.949Z,0.38
2022-08-23T18:40:15.901Z,0.40
2022-08-23T18:42:44.510Z,0.45
2022-08-23T18:45:14.200Z,0.50
2022-08-23T18:47:42.206Z,0.50
2022-08-23T18:50:11.500Z,0.60
2022-08-23T18:52:39.473Z,0.50
2022-08-23T18:55:07.739Z,0.47
2022-08-23T18:57:35.526Z,0.50
2022-08-23T19:00:05.819Z,0.52
2022-08-23T19:02:34.347Z,0.43
2022-08-23T19:05:03.501Z,0.60
2022-08-23T19:07:32.741Z,0.50
2022-08-23T19:10:01.652Z,0.50
2022-08-23T19:12:29.949Z,0.50
2022-08-23T19:14:58.612Z,0.50
2022-08-23T19:17:30.779Z,0.40
2022-08-23T19:20:13.176Z,0.50
2022-08-23T19:22:44.857Z,0.40
2022-08-23T19:25:16.212Z,0.50
2022-08-23T19:27:45.289Z,0.40
2022-08-23T19:30:17.345Z,0.40
2022-08-23T19:32:45.694Z,0.30
2022-08-23T19:35:14.554Z,0.40
2022-08-23T19:37:45.615Z,0.40
2022-08-23T19:40:16.622Z,0.22
2022-08-23T19:42:44.892Z,0.30
2022-08-23T19:45:13.388Z,0.30
2022-08-23T19:47:41.246Z,0.30
2022-08-23T19:50:10.549Z,0.30
2022-08-23T19:52:38.844Z,0.30
2022-08-23T19:55:07.768Z,0.40
2022-08-23T19:57:37.746Z,0.20
2022-08-23T20:00:19.439Z,0.40
2022-08-23T20:02:48.651Z,0.30
2022-08-23T20:05:17.791Z,0.30
2022-08-23T20:07:46.476Z,0.50
2022-08-23T20:10:15.069Z,0.30
2022-08-23T20:12:43.187Z,0.93
2022-08-23T20:15:12.311Z,0.45
2022-08-23T20:17:41.226Z,0.40
2022-08-23T20:20:12.265Z,0.30
2022-08-23T20:22:59.474Z,0.30
2022-08-23T20:25:29.442Z,0.40
2022-08-23T20:27:57.592Z,0.40
2022-08-23T20:30:25.591Z,0.40
2022-08-23T20:32:53.579Z,0.50
2022-08-23T20:35:21.683Z,0.50
2022-08-23T20:37:49.517Z,0.38
2022-08-23T20:40:17.605Z,0.52
2022-08-23T20:42:45.598Z,0.40
2022-08-23T20:45:13.445Z,0.57
2022-08-23T20:47:41.530Z,0.60
2022-08-23T20:50:09.614Z,0.43
2022-08-23T20:52:37.617Z,0.65
2022-08-23T20:55:09.533Z,0.65
2022-08-23T20:57:39.048Z,0.50
2022-08-23T21:00:08.145Z,0.60
2022-08-23T21:02:36.196Z,0.50
2022-08-23T21:05:06.441Z,0.50
2022-08-23T21:07:34.752Z,0.50
2022-08-23T21:10:05.257Z,0.60
2022-08-23T21:12:33.428Z,0.70
2022-08-23T21:15:01.314Z,0.70
2022-08-23T21:17:29.347Z,0.63
2022-08-23T21:19:57.312Z,0.55
2022-08-23T21:22:30.311Z,0.50
2022-08-23T21:25:00.408Z,0.55
2022-08-23T21:27:28.619Z,0.70
2022-08-23T21:29:56.571Z,0.60
2022-08-23T21:32:24.623Z,0.57
2022-08-23T21:34:53.018Z,0.60
2022-08-23T21:37:20.942Z,0.70
2022-08-23T21:39:48.986Z,0.60
2022-08-23T21:42:23.475Z,0.50
2022-08-23T21:44:51.852Z,0.40
2022-08-23T21:47:21.047Z,0.30
2022-08-23T21:49:49.537Z,0.45
2022-08-23T21:52:17.621Z,0.60
2022-08-23T21:54:45.973Z,0.98
2022-08-23T21:57:13.973Z,0.50
2022-08-23T21:59:42.090Z,0.70
2022-08-23T22:02:10.456Z,0.60
2022-08-23T22:04:38.557Z,0.47
2022-08-23T22:07:06.641Z,0.70
2022-08-23T22:09:34.698Z,0.50
2022-08-23T22:12:02.697Z,0.40
2022-08-23T22:14:32.354Z,0.47
2022-08-23T22:17:00.701Z,0.43
2022-08-23T22:19:29.170Z,0.52
2022-08-23T22:21:57.459Z,0.60
2022-08-23T22:24:26.422Z,0.60
2022-08-23T22:26:55.794Z,0.60
2022-08-23T22:29:24.212Z,0.73
2022-08-23T22:31:52.184Z,0.80
2022-08-23T22:34:20.265Z,0.60
2022-08-23T22:36:51.450Z,0.70
2022-08-23T22:39:21.540Z,0.60
2022-08-23T22:41:57.310Z,0.80
2022-08-23T22:44:25.651Z,0.70
2022-08-23T22:46:53.629Z,0.68
2022-08-23T22:49:21.877Z,0.70
2022-08-23T22:51:55.497Z,0.60
2022-08-23T22:54:25.030Z,0.40
2022-08-23T22:56:53.906Z,0.52
2022-08-23T22:59:27.759Z,0.50
2022-08-23T23:02:03.218Z,0.57
2022-08-23T23:04:33.927Z,0.50
2022-08-23T23:07:02.425Z,0.40
2022-08-23T23:09:30.422Z,0.60
2022-08-23T23:11:58.380Z,0.50
2022-08-23T23:14:26.542Z,0.40
2022-08-23T23:16:54.492Z,0.50
2022-08-23T23:19:41.317Z,0.40
2022-08-23T23:22:10.803Z,0.73
2022-08-23T23:24:40.183Z,0.50
2022-08-23T23:27:08.472Z,0.50
2022-08-23T23:29:36.835Z,0.55
2022-08-23T23:32:06.018Z,0.63
2022-08-23T23:34:34.895Z,0.55
2022-08-23T23:37:03.017Z,0.50
2022-08-23T23:39:31.350Z,0.55
2022-08-23T23:41:59.466Z,0.52
2022-08-23T23:44:31.775Z,0.70
2022-08-23T23:47:01.960Z,0.60
2022-08-23T23:49:32.223Z,0.85
2022-08-23T23:52:03.810Z,1.00
2022-08-23T23:54:32.434Z,0.70
2022-08-23T23:57:00.594Z,0.80
2022-08-23T23:59:28.790Z,0.98
